This is the latest recevied weather packets stored in our database for station/object OE6ATD-13. If no packets are shown the sender has not sent any weather packets the latest 10 day(s).
| Time | Temp. | Humidity | Pressure | Rain* | Wind** | Luminosity | Snow |
|---|---|---|---|---|---|---|---|
| 1777547730 | 13.89° C | 22% | 1027.3 hPa | 0 mm | - | 762 W/m² | - |
| 1777547126 | 14.44° C | 22% | 1027.4 hPa | 0 mm | - | 785 W/m² | - |
| 1777546522 | 13.89° C | 22% | 1027.3 hPa | 0 mm | - | 780 W/m² | - |
| 1777545917 | 13.89° C | 22% | 1027.4 hPa | 0 mm | - | 791 W/m² | - |
| 1777545328 | 13.33° C | 20% | 1027.6 hPa | 0 mm | - | 787 W/m² | - |
| 1777544724 | 13.89° C | 20% | 1027.6 hPa | 0 mm | - | 791 W/m² | - |
| 1777544120 | 13.89° C | 22% | 1027.7 hPa | 0 mm | - | 789 W/m² | - |
| 1777543516 | 13.33° C | 22% | 1027.9 hPa | 0 mm | - | 768 W/m² | - |
| 1777542925 | 12.78° C | 22% | 1028 hPa | 0 mm | - | 754 W/m² | - |
| 1777542321 | 13.33° C | 22% | 1028.1 hPa | 0 mm | - | 747 W/m² | - |
| 1777541716 | 13.33° C | 22% | 1028.1 hPa | 0 mm | - | 736 W/m² | - |
| 1777541127 | 12.78° C | 24% | 1028.2 hPa | 0 mm | - | 718 W/m² | - |
| 1777540523 | 13.33° C | 23% | 1028.2 hPa | 0 mm | - | 710 W/m² | - |
| 1777539919 | 12.78° C | 23% | 1028.3 hPa | 0 mm | - | 693 W/m² | - |
| 1777539330 | 12.22° C | 25% | 1028.3 hPa | 0 mm | - | 669 W/m² | - |
| 1777538725 | 12.22° C | 22% | 1028.3 hPa | 0 mm | - | 648 W/m² | - |
| 1777538121 | 11.67° C | 28% | 1028.3 hPa | 0 mm | - | 623 W/m² | - |
| 1777537517 | 11.11° C | 27% | 1028.3 hPa | 0 mm | - | 604 W/m² | - |
| 1777536928 | 11.67° C | 30% | 1028.3 hPa | 0 mm | - | 590 W/m² | - |
| 1777536324 | 11.11° C | 30% | 1028.3 hPa | 0 mm | - | 564 W/m² | - |
| 1777535726 | 12.22° C | 30% | 1028.3 hPa | 0 mm | - | 551 W/m² | - |
| 1777535122 | 11.11° C | 31% | 1028.4 hPa | 0 mm | - | 519 W/m² | - |
| 1777534518 | 10° C | 31% | 1028.5 hPa | 0 mm | - | 487 W/m² | - |
| 1777533929 | 10° C | 31% | 1028.5 hPa | 0 mm | - | 462 W/m² | - |
| 1777533325 | 10° C | 31% | 1028.5 hPa | 0 mm | - | 436 W/m² | - |
* Rain latest hour (hover to see other rain measurements)
** Current wind speed in m/s (hover to see current wind gust speed)